createdAt,value
2023-05-19T00:00:48.983Z,81.90
2023-05-19T00:03:55.099Z,82.46
2023-05-19T00:07:00.745Z,83.00
2023-05-19T00:10:04.012Z,83.26
2023-05-19T00:13:09.193Z,82.52
2023-05-19T00:16:13.477Z,82.75
2023-05-19T00:19:16.967Z,83.56
2023-05-19T00:22:19.711Z,83.69
2023-05-19T00:25:22.532Z,83.44
2023-05-19T00:28:26.529Z,83.06
2023-05-19T00:31:29.968Z,82.84
2023-05-19T00:34:32.601Z,83.06
2023-05-19T00:37:35.312Z,82.92
2023-05-19T00:40:37.996Z,83.74
2023-05-19T00:43:41.982Z,83.84
2023-05-19T00:46:44.761Z,84.59
2023-05-19T00:49:47.441Z,85.21
2023-05-19T00:52:50.088Z,84.58
2023-05-19T00:55:52.726Z,85.09
2023-05-19T00:58:57.084Z,85.24
2023-05-19T01:01:59.904Z,84.91
2023-05-19T01:05:03.048Z,84.96
2023-05-19T01:08:06.470Z,84.66
2023-05-19T01:11:10.277Z,85.57
2023-05-19T01:14:14.342Z,84.92
2023-05-19T01:17:26.221Z,85.34
2023-05-19T01:20:38.390Z,85.22
2023-05-19T01:23:54.117Z,84.74
2023-05-19T01:27:24.729Z,84.23
2023-05-19T01:30:31.266Z,84.65
2023-05-19T01:33:35.087Z,85.13
2023-05-19T01:36:39.490Z,84.83
2023-05-19T01:39:43.435Z,84.73
2023-05-19T01:42:48.165Z,85.19
2023-05-19T01:45:53.279Z,84.55
2023-05-19T01:48:56.824Z,85.19
2023-05-19T01:51:59.465Z,84.92
2023-05-19T01:55:02.099Z,85.27
2023-05-19T01:58:16.491Z,84.86
2023-05-19T02:01:31.711Z,85.64
2023-05-19T02:04:40.651Z,86.44
2023-05-19T02:07:49.616Z,86.06
2023-05-19T02:10:58.786Z,86.74
2023-05-19T02:14:05.897Z,86.50
2023-05-19T02:17:11.341Z,86.22
2023-05-19T02:20:14.434Z,87.37
2023-05-19T02:23:17.077Z,87.42
2023-05-19T02:26:19.740Z,87.03
2023-05-19T02:29:22.486Z,86.82
2023-05-19T02:32:26.715Z,87.13
2023-05-19T02:35:29.450Z,87.07
2023-05-19T02:38:32.576Z,87.34
2023-05-19T02:41:35.215Z,87.92
2023-05-19T02:44:37.935Z,87.23
2023-05-19T02:47:41.996Z,87.64
2023-05-19T02:50:44.661Z,87.47
2023-05-19T02:53:47.308Z,88.22
2023-05-19T02:56:50.033Z,88.05
2023-05-19T02:59:52.667Z,88.64
2023-05-19T03:02:56.708Z,88.77
2023-05-19T03:05:59.891Z,88.80
2023-05-19T03:09:02.549Z,87.98
2023-05-19T03:12:07.277Z,87.93
2023-05-19T03:15:13.034Z,89.11
2023-05-19T03:18:17.176Z,89.07
2023-05-19T03:21:19.878Z,89.00
2023-05-19T03:24:22.524Z,88.21
2023-05-19T03:27:25.761Z,88.17
2023-05-19T03:30:28.443Z,88.80
2023-05-19T03:33:32.478Z,88.80
2023-05-19T03:36:39.259Z,88.82
2023-05-19T03:39:41.903Z,88.74
2023-05-19T03:42:44.618Z,88.81
2023-05-19T03:45:47.309Z,88.78
2023-05-19T03:48:51.417Z,88.67
2023-05-19T03:51:54.076Z,89.09
2023-05-19T03:54:57.672Z,89.05
2023-05-19T03:58:00.372Z,89.37
2023-05-19T04:01:03.329Z,89.09
2023-05-19T04:04:07.550Z,89.66
2023-05-19T04:07:10.267Z,89.48
2023-05-19T04:10:13.716Z,90.03
2023-05-19T04:13:16.339Z,89.76
2023-05-19T04:16:19.177Z,89.81
2023-05-19T04:19:23.309Z,90.01
2023-05-19T04:22:26.114Z,89.58
2023-05-19T04:25:28.848Z,89.41
2023-05-19T04:28:31.485Z,89.30
2023-05-19T04:31:35.892Z,89.40
2023-05-19T04:34:40.401Z,89.94
2023-05-19T04:37:45.929Z,89.94
2023-05-19T04:40:50.173Z,89.85
2023-05-19T04:43:52.978Z,90.07
2023-05-19T04:46:58.247Z,89.83
2023-05-19T04:50:02.369Z,89.84
2023-05-19T04:53:05.025Z,89.85
2023-05-19T04:56:08.005Z,90.20
2023-05-19T04:59:10.857Z,90.06
2023-05-19T05:02:13.681Z,90.60
2023-05-19T05:05:17.870Z,90.36
2023-05-19T05:08:23.103Z,90.03
2023-05-19T05:11:26.293Z,90.19
2023-05-19T05:14:29.631Z,90.01
2023-05-19T05:17:32.830Z,90.16
2023-05-19T05:20:37.674Z,90.27
2023-05-19T05:23:40.782Z,89.30
2023-05-19T05:26:44.064Z,89.70
2023-05-19T05:29:46.746Z,89.00
2023-05-19T05:32:49.546Z,89.00
2023-05-19T05:35:53.681Z,88.60
2023-05-19T05:38:56.348Z,89.03
2023-05-19T05:41:59.018Z,88.40
2023-05-19T05:45:01.684Z,88.38
2023-05-19T05:48:05.043Z,88.56
2023-05-19T05:51:10.233Z,87.75
2023-05-19T05:54:13.966Z,86.97
2023-05-19T05:57:17.107Z,87.24
2023-05-19T06:00:22.294Z,86.94
2023-05-19T06:03:25.210Z,86.15
2023-05-19T06:06:29.461Z,86.41
2023-05-19T06:09:32.771Z,85.24
2023-05-19T06:12:35.757Z,84.16
2023-05-19T06:15:38.605Z,83.65
2023-05-19T06:18:41.404Z,84.55
2023-05-19T06:21:45.487Z,81.59
2023-05-19T06:24:48.619Z,80.25
2023-05-19T06:27:51.465Z,80.25
2023-05-19T06:30:54.137Z,78.97
2023-05-19T06:33:56.784Z,80.29
2023-05-19T06:37:02.304Z,77.10
2023-05-19T06:40:05.684Z,76.09
2023-05-19T06:43:08.390Z,73.67
2023-05-19T06:46:12.969Z,75.98
2023-05-19T06:49:15.652Z,72.38
2023-05-19T06:52:19.648Z,74.74
2023-05-19T06:55:22.514Z,73.98
2023-05-19T06:58:25.171Z,74.87
2023-05-19T07:01:28.116Z,75.17
2023-05-19T07:04:30.927Z,75.19
2023-05-19T07:07:34.921Z,74.29
2023-05-19T07:10:37.825Z,72.64
2023-05-19T07:17:56.396Z,72.83
2023-05-19T07:20:59.345Z,73.40
2023-05-19T07:24:03.334Z,71.31
2023-05-19T07:27:06.900Z,72.35
2023-05-19T07:30:10.380Z,69.30
2023-05-19T07:33:13.117Z,65.72
2023-05-19T07:36:15.888Z,66.87
2023-05-19T07:39:20.204Z,61.32
2023-05-19T07:42:22.912Z,61.20
2023-05-19T07:45:25.652Z,61.29
2023-05-19T07:48:28.326Z,59.95
2023-05-19T07:51:31.551Z,62.58
2023-05-19T07:54:35.645Z,60.12
2023-05-19T07:57:38.409Z,57.33
2023-05-19T08:00:43.022Z,55.38
2023-05-19T08:03:45.743Z,55.47
2023-05-19T08:06:48.433Z,55.61
2023-05-19T08:09:52.514Z,56.69
2023-05-19T08:12:55.322Z,55.33
2023-05-19T08:15:59.912Z,54.41
2023-05-19T08:19:05.268Z,53.15
2023-05-19T08:22:07.983Z,53.83
2023-05-19T08:25:12.154Z,55.22
2023-05-19T08:28:14.864Z,56.13
2023-05-19T08:31:18.359Z,54.47
2023-05-19T08:34:21.147Z,56.25
2023-05-19T08:37:23.756Z,53.59
2023-05-19T08:40:31.639Z,53.10
2023-05-19T08:43:34.656Z,56.57
2023-05-19T08:46:37.441Z,53.46
2023-05-19T08:49:45.164Z,50.96
2023-05-19T08:52:53.615Z,52.82
2023-05-19T08:56:04.051Z,53.21
2023-05-19T08:59:08.605Z,51.92
2023-05-19T09:02:13.985Z,48.50
2023-05-19T09:05:18.304Z,51.54
2023-05-19T09:08:21.066Z,49.14
2023-05-19T09:11:25.091Z,49.08
2023-05-19T09:14:27.937Z,50.06
2023-05-19T09:17:30.578Z,49.24
2023-05-19T09:20:33.266Z,49.51
2023-05-19T09:23:35.966Z,49.70
2023-05-19T09:26:41.129Z,47.56
2023-05-19T09:29:44.283Z,50.31
2023-05-19T09:32:48.022Z,48.19
2023-05-19T09:35:50.865Z,48.04
2023-05-19T09:38:53.617Z,48.00
2023-05-19T09:41:58.592Z,48.36
2023-05-19T09:45:02.312Z,46.64
2023-05-19T09:48:05.651Z,46.93
2023-05-19T09:51:10.299Z,46.50
2023-05-19T09:54:16.280Z,44.93
2023-05-19T09:57:26.992Z,47.02
2023-05-19T10:00:31.019Z,44.53
2023-05-19T10:03:35.172Z,43.32
2023-05-19T10:06:38.357Z,43.58
2023-05-19T10:09:43.596Z,43.00
2023-05-19T10:12:48.268Z,42.62
2023-05-19T10:15:58.027Z,40.83
2023-05-19T10:19:03.415Z,40.40
2023-05-19T10:22:06.294Z,41.09
2023-05-19T10:25:10.670Z,41.47
2023-05-19T10:28:18.503Z,41.71
2023-05-19T10:31:23.328Z,38.54
2023-05-19T10:34:50.270Z,39.37
2023-05-19T10:37:58.767Z,39.57
2023-05-19T10:41:06.510Z,37.97
2023-05-19T10:44:18.658Z,39.72
2023-05-19T10:47:24.939Z,37.78
2023-05-19T10:50:27.799Z,35.35
2023-05-19T10:53:32.851Z,37.44
2023-05-19T10:56:36.313Z,35.27
2023-05-19T10:59:40.922Z,34.42
2023-05-19T11:02:44.443Z,35.43
2023-05-19T11:05:50.024Z,34.40
2023-05-19T11:08:58.644Z,35.57
2023-05-19T11:12:04.558Z,35.99
2023-05-19T11:15:11.286Z,35.76
2023-05-19T11:18:16.292Z,35.23
2023-05-19T11:21:20.890Z,34.56
2023-05-19T11:24:37.578Z,35.16
2023-05-19T11:27:40.811Z,34.20
2023-05-19T11:30:46.818Z,33.47
2023-05-19T11:33:49.656Z,34.77
2023-05-19T11:36:53.707Z,34.04
2023-05-19T11:39:56.376Z,34.56
2023-05-19T11:43:01.684Z,35.41
2023-05-19T11:46:06.121Z,35.36
2023-05-19T11:49:08.957Z,33.30
2023-05-19T11:52:12.050Z,32.16
2023-05-19T11:55:16.914Z,32.31
2023-05-19T11:58:25.991Z,33.21
2023-05-19T12:01:31.779Z,33.24
2023-05-19T12:04:34.463Z,34.21
2023-05-19T12:07:39.366Z,34.37
2023-05-19T12:10:42.418Z,34.46
2023-05-19T12:13:45.591Z,35.84
2023-05-19T12:16:49.673Z,35.89
2023-05-19T12:19:52.657Z,36.76
2023-05-19T12:22:57.194Z,35.99
2023-05-19T12:26:00.527Z,36.02
2023-05-19T12:29:05.257Z,36.06
2023-05-19T12:32:10.544Z,37.11
2023-05-19T12:35:13.714Z,37.13
2023-05-19T12:38:17.081Z,35.00
2023-05-19T12:41:19.817Z,34.82
2023-05-19T12:44:23.444Z,35.16
2023-05-19T12:47:34.644Z,35.79
2023-05-19T12:50:38.699Z,35.08
2023-05-19T12:53:41.638Z,37.16
2023-05-19T12:56:51.136Z,39.07
2023-05-19T12:59:53.832Z,39.22
2023-05-19T13:03:00.169Z,39.58
2023-05-19T13:06:03.000Z,39.88
2023-05-19T13:09:07.171Z,39.03
2023-05-19T13:12:09.882Z,40.14
2023-05-19T13:15:12.941Z,40.06
2023-05-19T13:18:17.161Z,39.62
2023-05-19T13:21:19.837Z,38.32
2023-05-19T13:24:22.534Z,38.72
2023-05-19T13:27:26.232Z,39.73
2023-05-19T13:30:29.125Z,40.45
2023-05-19T13:33:33.211Z,41.68
2023-05-19T13:36:36.572Z,43.17
2023-05-19T13:39:40.458Z,44.00
2023-05-19T13:42:43.181Z,43.94
2023-05-19T13:45:45.813Z,44.57
2023-05-19T13:48:49.778Z,45.93
2023-05-19T13:51:52.581Z,45.65
2023-05-19T13:54:56.559Z,44.93
2023-05-19T13:57:59.219Z,42.92
2023-05-19T14:01:01.972Z,43.22
2023-05-19T14:04:07.155Z,44.00
2023-05-19T14:07:10.328Z,44.31
2023-05-19T14:10:13.000Z,44.13
2023-05-19T14:16:28.712Z,45.82
2023-05-19T14:19:32.762Z,46.48
2023-05-19T14:22:35.373Z,47.44
2023-05-19T14:25:38.022Z,48.15
2023-05-19T14:28:40.647Z,48.51
2023-05-19T14:31:43.375Z,49.07
2023-05-19T14:34:47.441Z,49.24
2023-05-19T14:37:50.093Z,50.21
2023-05-19T14:40:52.742Z,50.18
2023-05-19T14:43:55.389Z,49.22
2023-05-19T14:46:58.233Z,49.08
2023-05-19T14:50:02.340Z,49.23
2023-05-19T14:53:05.106Z,49.69
2023-05-19T14:56:08.821Z,49.23
2023-05-19T14:59:11.500Z,49.93
2023-05-19T15:02:14.158Z,49.11
2023-05-19T15:05:18.200Z,51.05
2023-05-19T15:08:20.884Z,51.65
2023-05-19T15:11:23.516Z,50.47
2023-05-19T15:14:27.796Z,50.63
2023-05-19T15:17:30.904Z,49.48
2023-05-19T15:20:35.233Z,50.11
2023-05-19T15:23:38.077Z,49.25
2023-05-19T15:26:40.798Z,51.47
2023-05-19T15:29:43.430Z,50.30
2023-05-19T15:32:46.198Z,49.53
2023-05-19T15:35:52.044Z,50.93
2023-05-19T15:38:54.679Z,50.22
2023-05-19T15:41:57.356Z,50.84
2023-05-19T15:44:59.991Z,49.86
2023-05-19T15:48:03.152Z,51.72
2023-05-19T15:51:07.334Z,51.59
2023-05-19T15:54:09.952Z,50.66
2023-05-19T15:57:13.553Z,51.96
2023-05-19T16:00:16.842Z,50.98
2023-05-19T16:03:19.745Z,51.39
2023-05-19T16:06:25.063Z,52.34
2023-05-19T16:09:27.713Z,52.82
2023-05-19T16:12:30.337Z,52.14
2023-05-19T16:15:32.967Z,52.50
2023-05-19T16:18:35.640Z,51.74
2023-05-19T16:21:39.637Z,51.28
2023-05-19T16:24:42.264Z,53.21
2023-05-19T16:27:45.256Z,53.37
2023-05-19T16:30:47.909Z,52.00
2023-05-19T16:33:50.530Z,52.91
2023-05-19T16:36:54.532Z,52.11
2023-05-19T16:39:57.213Z,52.35
2023-05-19T16:42:59.892Z,52.74
2023-05-19T16:46:04.478Z,54.00
2023-05-19T16:49:07.244Z,54.58
2023-05-19T16:52:11.817Z,54.05
2023-05-19T16:55:19.374Z,54.05
2023-05-19T16:58:22.015Z,54.52
2023-05-19T17:01:24.800Z,55.34
2023-05-19T17:04:29.443Z,55.75
2023-05-19T17:07:34.702Z,56.12
2023-05-19T17:10:38.553Z,56.27
2023-05-19T17:13:43.422Z,56.82
2023-05-19T17:16:46.570Z,57.48
2023-05-19T17:19:49.231Z,57.55
2023-05-19T17:22:53.203Z,57.84
2023-05-19T17:25:55.992Z,59.23
2023-05-19T17:28:58.668Z,59.61
2023-05-19T17:32:01.323Z,60.65
2023-05-19T17:35:05.385Z,60.59
2023-05-19T17:38:09.363Z,60.45
2023-05-19T17:41:13.895Z,61.02
2023-05-19T17:44:16.492Z,61.21
2023-05-19T17:47:19.146Z,61.49
2023-05-19T17:50:21.748Z,62.64
2023-05-19T17:53:26.722Z,62.65
2023-05-19T17:56:33.989Z,62.25
2023-05-19T17:59:37.197Z,61.47
2023-05-19T18:02:40.849Z,62.21
2023-05-19T18:05:45.401Z,61.17
2023-05-19T18:08:51.381Z,61.06
2023-05-19T18:11:54.987Z,60.65
2023-05-19T18:14:57.770Z,60.60
2023-05-19T18:18:00.793Z,60.23
2023-05-19T18:21:03.469Z,59.83
2023-05-19T18:24:08.218Z,61.19
2023-05-19T18:27:11.069Z,61.56
2023-05-19T18:30:14.358Z,60.21
2023-05-19T18:33:16.963Z,60.74
2023-05-19T18:36:19.614Z,60.57
2023-05-19T18:39:23.608Z,61.17
2023-05-19T18:42:26.254Z,61.12
2023-05-19T18:45:28.904Z,60.54
2023-05-19T18:48:33.062Z,61.00
2023-05-19T18:51:36.033Z,61.66
2023-05-19T18:54:41.869Z,62.49
2023-05-19T18:57:44.475Z,62.79
2023-05-19T19:00:47.996Z,62.13
2023-05-19T19:03:50.678Z,62.94
2023-05-19T19:06:53.363Z,63.14
2023-05-19T19:09:57.333Z,64.21
2023-05-19T19:12:59.977Z,64.23
2023-05-19T19:16:02.671Z,64.33
2023-05-19T19:19:05.408Z,64.38
2023-05-19T19:22:08.109Z,64.54
2023-05-19T19:25:12.233Z,65.32
2023-05-19T19:28:14.871Z,66.41
2023-05-19T19:31:17.625Z,66.55
2023-05-19T19:34:20.389Z,68.41
2023-05-19T19:37:23.021Z,67.83
2023-05-19T19:40:26.980Z,68.47
2023-05-19T19:43:29.695Z,68.46
2023-05-19T19:46:32.345Z,68.62
2023-05-19T19:49:35.295Z,70.20
2023-05-19T19:52:37.978Z,70.09
2023-05-19T19:55:42.971Z,72.38
2023-05-19T19:58:45.670Z,71.45
2023-05-19T20:01:48.337Z,72.56
2023-05-19T20:04:51.048Z,73.12
2023-05-19T20:07:53.665Z,73.13
2023-05-19T20:10:57.733Z,73.98
2023-05-19T20:14:00.356Z,74.24
2023-05-19T20:17:03.467Z,76.18
2023-05-19T20:20:09.893Z,75.47
2023-05-19T20:23:13.315Z,76.29
2023-05-19T20:26:17.483Z,76.39
2023-05-19T20:29:20.147Z,77.07
2023-05-19T20:32:22.770Z,77.71
2023-05-19T20:35:25.564Z,77.52
2023-05-19T20:38:28.418Z,77.98
2023-05-19T20:41:32.439Z,78.14
2023-05-19T20:44:35.074Z,78.16
2023-05-19T20:47:37.794Z,78.95
2023-05-19T20:50:40.613Z,78.29
2023-05-19T20:53:43.250Z,78.43
2023-05-19T20:56:47.210Z,78.75
2023-05-19T20:59:49.876Z,78.01
2023-05-19T21:02:52.579Z,76.96
2023-05-19T21:05:55.760Z,76.66
2023-05-19T21:08:58.417Z,76.74
2023-05-19T21:12:02.802Z,76.70
2023-05-19T21:15:05.990Z,75.67
2023-05-19T21:18:08.683Z,75.80
2023-05-19T21:21:11.828Z,75.68
2023-05-19T21:24:14.827Z,74.81
2023-05-19T21:27:18.864Z,72.30
2023-05-19T21:30:23.439Z,73.27
2023-05-19T21:33:26.281Z,71.45
2023-05-19T21:36:28.971Z,71.13
2023-05-19T21:39:31.858Z,70.77
2023-05-19T21:42:36.260Z,70.34
2023-05-19T21:45:39.091Z,69.96
2023-05-19T21:48:41.737Z,70.32
2023-05-19T21:51:44.385Z,69.72
2023-05-19T21:54:47.778Z,68.74
2023-05-19T21:57:52.072Z,68.99
2023-05-19T22:00:55.965Z,68.71
2023-05-19T22:03:58.677Z,67.80
2023-05-19T22:07:01.419Z,67.48
2023-05-19T22:10:04.296Z,65.75
2023-05-19T22:13:08.477Z,66.43
2023-05-19T22:16:11.299Z,65.46
2023-05-19T22:19:14.559Z,64.76
2023-05-19T22:22:17.260Z,62.89
2023-05-19T22:25:20.144Z,63.48
2023-05-19T22:28:24.129Z,63.37
2023-05-19T22:31:26.793Z,64.16
2023-05-19T22:34:29.453Z,63.78
2023-05-19T22:37:32.131Z,63.48
2023-05-19T22:40:34.989Z,62.88
2023-05-19T22:43:39.248Z,63.38
2023-05-19T22:46:41.885Z,62.44
2023-05-19T22:49:44.547Z,63.32
2023-05-19T22:52:47.176Z,62.37
2023-05-19T22:55:49.798Z,63.00
2023-05-19T22:58:53.796Z,63.17
2023-05-19T23:01:56.506Z,63.44
2023-05-19T23:04:59.132Z,62.73
2023-05-19T23:08:01.786Z,62.76
2023-05-19T23:11:04.509Z,63.24
2023-05-19T23:14:08.651Z,63.05
2023-05-19T23:17:11.322Z,63.21
2023-05-19T23:20:14.595Z,62.38
2023-05-19T23:23:17.288Z,63.44
2023-05-19T23:26:19.921Z,62.63
2023-05-19T23:29:23.947Z,63.09
2023-05-19T23:32:26.747Z,61.76
2023-05-19T23:35:29.486Z,62.79
2023-05-19T23:38:32.202Z,62.55
2023-05-19T23:41:34.836Z,63.21
2023-05-19T23:44:38.884Z,61.96
2023-05-19T23:47:41.597Z,62.03
2023-05-19T23:50:44.294Z,61.94
2023-05-19T23:53:46.931Z,63.94
2023-05-19T23:56:49.578Z,62.37
2023-05-19T23:59:53.611Z,62.66
